CW4352 Castellarano IT current weather conditions

sailwx.info

Wind from 011

Air temperature 28.3° C
Dewpoint 15.6° C

Last reported at 2020-Aug-07 18:02 UTC.
Time now 2020-Aug-07 18:34 UTC

Location: N 44°32' E 010°45'.
View on Google Maps.

See reports from other nearby stations

  
Tides and Currents Weather Stations Pressure Air Temp Water Temp Dewpoint Dewpoint Depression Visibility Wind Speed Wind Dir Waves Ship Positions
date/time (UTC)wind fromknots sea level pressurealtimeterstation pressurevisibilityair tempwater tempwave heightnotes
2020-Aug-07 18:02 011 28.3
2020-Aug-07 17:42 011 1 gusting 4 28.9
2020-Aug-07 17:37 011 2 gusting 4 28.9
2020-Aug-07 17:32 011 2 gusting 5 28.9
2020-Aug-07 17:12 005 2 gusting 4 29.4
2020-Aug-07 17:07 016 3 gusting 6 29.4
2020-Aug-07 17:02 024 1 gusting 2 29.4
2020-Aug-07 16:42 030 2 gusting 5 30.0
2020-Aug-07 16:37 009 2 gusting 5 30.0
2020-Aug-07 16:32 011 2 gusting 6 30.0
2020-Aug-07 16:12 355 2 gusting 4 30.0
2020-Aug-07 15:47 039 1 gusting 4 30.0
2020-Aug-07 15:42 30.0
2020-Aug-07 15:37 012 2 gusting 5 30.0
2020-Aug-07 15:12 028 1 gusting 4 30.0
2020-Aug-07 15:07 024 0 gusting 2 30.0
2020-Aug-07 15:02 025 2 gusting 6 30.0
2020-Aug-07 14:47 045 2 gusting 4 30.0
2020-Aug-07 14:32 043 2 gusting 6 29.4
2020-Aug-07 14:17 006 2 gusting 5 30.0
2020-Aug-07 14:12 018 2 gusting 7 30.0
2020-Aug-07 14:02 044 1 gusting 6 30.0
2020-Aug-07 13:42 047 3 gusting 7 30.0
2020-Aug-07 13:32 012 29.4
2020-Aug-07 13:12 321 3 gusting 6 30.0
2020-Aug-07 12:47 045 1 gusting 7 29.4
2020-Aug-07 12:37 032 2 gusting 6 29.4
2020-Aug-07 12:32 039 3 gusting 6 29.4
2020-Aug-07 12:12 046 2 gusting 5 29.4
2020-Aug-07 12:07 039 1 gusting 6 29.4
2020-Aug-07 12:02 041 2 gusting 6 29.4
2020-Aug-07 11:47 061 0 gusting 5 28.9
2020-Aug-07 11:37 011 2 gusting 4 28.3
2020-Aug-07 11:17 011 0 gusting 6 28.9
2020-Aug-07 11:12 003 2 gusting 5 28.3
2020-Aug-07 11:07 043 1 gusting 5 28.3
2020-Aug-07 11:02 019 5 gusting 10 28.3
2020-Aug-07 10:42 047 2 gusting 6 28.3
2020-Aug-07 10:37 025 0 gusting 2 28.3
2020-Aug-07 10:32 005 1 gusting 5 28.3
2020-Aug-07 10:17 047 2 gusting 6 28.3
2020-Aug-07 10:12 350 3 gusting 6 28.3
2020-Aug-07 10:07 017 1 gusting 2 28.3
2020-Aug-07 09:47 031 2 gusting 5 28.3
2020-Aug-07 09:42 015 28.3
2020-Aug-07 09:32 026 0 gusting 4 28.3
2020-Aug-07 09:12 004 0 gusting 4 28.3
2020-Aug-07 09:07 028 2 gusting 4 28.3
2020-Aug-07 09:02 134 28.3
2020-Aug-07 08:47 134 0 gusting 4 27.8
2020-Aug-07 08:42 136 1 gusting 4 27.8
2020-Aug-07 08:37 063 0 gusting 2 27.8
2020-Aug-07 08:32 063 0 gusting 4 27.8
2020-Aug-07 08:02 266 26.7
2020-Aug-07 07:47 266 25.6
2020-Aug-07 07:42 265 25.6
2020-Aug-07 07:37 265 25.0
2020-Aug-07 07:32 265 0 gusting 2 25.0
2020-Aug-07 07:12 265 1 gusting 2 24.4
2020-Aug-07 07:07 265 0 gusting 1 24.4
2020-Aug-07 07:02 265 0 gusting 2 23.9
2020-Aug-07 06:47 265 0 gusting 1 23.3
2020-Aug-07 06:42 265 0 gusting 1 22.8
2020-Aug-07 06:07 266 20.6
2020-Aug-07 06:02 266 20.6
2020-Aug-07 05:47 266 20.0
2020-Aug-07 05:42 266 20.0
2020-Aug-07 05:37 266 19.4
2020-Aug-07 05:32 266 19.4
2020-Aug-07 05:17 266 0 gusting 0 18.9
2020-Aug-07 05:07 266 18.9
2020-Aug-07 05:02 266 0 gusting 1 18.9
2020-Aug-07 04:47 266 18.9
2020-Aug-07 04:42 266 0 gusting 2 18.9
2020-Aug-07 04:37 266 18.9
2020-Aug-07 04:32 266 18.9
2020-Aug-07 04:17 266 0 gusting 2 18.9
2020-Aug-07 04:12 266 0 gusting 2 18.9
2020-Aug-07 04:07 266 0 gusting 1 18.9
2020-Aug-07 04:02 266 0 gusting 2 18.9
2020-Aug-07 03:47 266 0 gusting 1 18.9
2020-Aug-07 03:42 266 18.9
2020-Aug-07 03:37 266 18.9
2020-Aug-07 03:32 266 18.9
2020-Aug-07 03:17 266 0 gusting 1 18.9
2020-Aug-07 03:12 266 0 gusting 1 18.9
2020-Aug-07 03:07 266 0 gusting 1 18.9
2020-Aug-07 03:02 266 18.9
2020-Aug-07 02:42 262 0 gusting 2 19.4
2020-Aug-07 02:32 262 1 gusting 2 19.4
2020-Aug-07 02:17 263 1 gusting 2 19.4
2020-Aug-07 02:02 263 2 gusting 4 19.4
2020-Aug-07 01:47 263 2 gusting 4 19.4
2020-Aug-07 01:37 265 1 gusting 2 19.4
2020-Aug-07 01:32 265 1 gusting 2 19.4
2020-Aug-07 01:17 265 19.4
2020-Aug-07 01:02 265 1 gusting 2 19.4
2020-Aug-07 00:47 265 0 gusting 1 20.0
2020-Aug-07 00:32 265 1 gusting 2 20.0
2020-Aug-07 00:17 265 1 gusting 4 20.0
2020-Aug-07 00:12 270 2 gusting 2 20.0
2020-Aug-07 00:07 272 1 gusting 2 20.0
2020-Aug-07 00:02 273 1 gusting 2 20.6
2020-Aug-06 23:47 279 1 gusting 2 20.0
2020-Aug-06 23:42 279 1 gusting 2 20.6
2020-Aug-06 23:37 279 0 gusting 2 20.6
2020-Aug-06 23:17 279 1 gusting 2 20.6
2020-Aug-06 23:12 279 1 gusting 2 20.6
2020-Aug-06 23:07 279 1 gusting 2 20.6
2020-Aug-06 23:02 279 0 gusting 2 20.6
2020-Aug-06 22:47 279 20.6
2020-Aug-06 22:42 279 0 gusting 2 20.6
2020-Aug-06 22:37 279 1 gusting 2 20.6
2020-Aug-06 22:32 279 1 gusting 2 20.6
2020-Aug-06 22:17 279 0 gusting 2 20.6
2020-Aug-06 22:07 046 0 gusting 1 20.6
2020-Aug-06 22:02 046 20.6
2020-Aug-06 21:42 046 0 gusting 1 21.1
2020-Aug-06 21:32 046 21.1
2020-Aug-06 21:17 046 21.1
2020-Aug-06 21:12 046 21.1
2020-Aug-06 21:07 046 0 gusting 1 21.1
2020-Aug-06 21:02 046 21.1
2020-Aug-06 20:47 046 21.7
2020-Aug-06 20:42 046 21.7
2020-Aug-06 20:37 046 21.7
2020-Aug-06 20:32 046 21.7
2020-Aug-06 20:12 046 0 gusting 0 22.2
2020-Aug-06 20:02 046 22.8
2020-Aug-06 19:47 046 22.8
2020-Aug-06 19:37 046 22.8
2020-Aug-06 19:32 046 22.8
2020-Aug-06 19:17 046 0 gusting 1 23.9
2020-Aug-06 19:12 046 0 gusting 1 23.9
2020-Aug-06 19:07 046 24.4
2020-Aug-06 19:02 046 24.4
2020-Aug-06 18:42 046 25.0
2020-Aug-06 18:37 046 25.0
2020-Aug-06 18:32 046 25.6
2020-Aug-06 18:12 049 1 gusting 4 26.1
2020-Aug-06 18:07 051 1 gusting 4 26.1
2020-Aug-06 17:37 053 1 gusting 2 26.7
2020-Aug-06 17:32 053 1 gusting 4 26.7
2020-Aug-06 17:12 060 1 gusting 2 27.2
2020-Aug-06 17:07 033 0 gusting 4 27.2
2020-Aug-06 17:02 063 0 gusting 8 27.2
2020-Aug-06 16:42 058 1 gusting 6 27.2
2020-Aug-06 16:37 044 2 gusting 6 27.2
2020-Aug-06 16:07 045 3 gusting 7 27.8
2020-Aug-06 16:02 048 2 gusting 8 27.2
2020-Aug-06 15:42 028 2 gusting 6 27.8
2020-Aug-06 15:37 043 2 gusting 6 27.8
2020-Aug-06 15:32 036 2 gusting 7 27.8
2020-Aug-06 15:17 048 2 gusting 6 27.8
2020-Aug-06 15:07 037 1 gusting 6 27.8
2020-Aug-06 15:02 030 4 gusting 8 28.3
2020-Aug-06 14:47 054 2 gusting 6 27.8
2020-Aug-06 14:42 035 2 gusting 5 27.8
2020-Aug-06 14:32 046 2 gusting 7 27.8
2020-Aug-06 14:17 051 3 gusting 6 27.8
2020-Aug-06 14:12 027 2 gusting 5 27.8
2020-Aug-06 14:07 025 4 gusting 8 27.8
2020-Aug-06 13:42 051 1 gusting 4 27.8
2020-Aug-06 13:32 014 2 gusting 6 27.8
2020-Aug-06 13:17 020 1 gusting 6 27.2
2020-Aug-06 13:07 005 0 gusting 6 27.2
2020-Aug-06 13:02 048 2 gusting 7 27.2
2020-Aug-06 12:47 122 1 gusting 5 27.8
2020-Aug-06 12:42 043 2 gusting 7 27.8
2020-Aug-06 12:37 051 6 gusting 10 27.8
2020-Aug-06 12:32 018 2 gusting 7 27.8
2020-Aug-06 12:17 047 2 gusting 6 27.2
2020-Aug-06 12:12 024 1 gusting 4 26.7
2020-Aug-06 12:07 025 2 gusting 6 26.7
2020-Aug-06 12:02 021 2 gusting 6 27.2
2020-Aug-06 11:42 035 1 gusting 2 26.7
2020-Aug-06 11:32 006 2 gusting 6 26.7
2020-Aug-06 11:17 056 1 gusting 2 26.7
2020-Aug-06 11:07 014 4 gusting 7 26.7
2020-Aug-06 10:47 039 1 gusting 6 27.2
2020-Aug-06 10:42 045 1 gusting 5 27.2
2020-Aug-06 10:37 039 2 gusting 6 27.2
2020-Aug-06 10:32 078 0 gusting 6 26.7
2020-Aug-06 10:12 022 1 gusting 4 26.7
2020-Aug-06 10:07 041 2 gusting 6 26.7
2020-Aug-06 10:02 356 2 gusting 6 26.7
2020-Aug-06 09:42 333 2 gusting 5 26.7
2020-Aug-06 09:37 044 1 gusting 2 26.1
2020-Aug-06 09:07 344 1 gusting 4 26.1
2020-Aug-06 09:02 009 2 gusting 5 26.1
2020-Aug-06 08:47 032 1 gusting 5 26.1
2020-Aug-06 08:37 018 1 gusting 4 25.6
2020-Aug-06 08:32 358 1 gusting 4 25.6
2020-Aug-06 07:47 216 23.9
2020-Aug-06 07:42 216 1 gusting 2 23.9
2020-Aug-06 07:37 216 0 gusting 2 23.3
2020-Aug-06 07:17 216 0 gusting 2 22.8
2020-Aug-06 07:07 216 1 gusting 2 22.2
2020-Aug-06 07:02 218 0 gusting 5 22.2
2020-Aug-06 06:47 221 1 gusting 4 21.1
2020-Aug-06 06:42 222 1 gusting 4 21.1
2020-Aug-06 06:37 224 1 gusting 4 20.6
2020-Aug-06 06:32 227 0 gusting 5 20.0
2020-Aug-06 06:17 225 2 gusting 6 20.0
2020-Aug-06 06:07 199 1 gusting 2 19.4
2020-Aug-06 05:37 239 1 gusting 2 18.9
2020-Aug-06 05:32 239 0 gusting 4 18.3
2020-Aug-06 05:17 242 1 gusting 2 17.8
2020-Aug-06 05:12 242 0 gusting 2 17.8
2020-Aug-06 05:07 242 1 gusting 2 17.8
2020-Aug-06 05:02 242 1 gusting 4 17.8
2020-Aug-06 04:47 242 3 gusting 5 17.8
2020-Aug-06 04:42 242 2 gusting 4 17.8
2020-Aug-06 04:37 242 1 gusting 2 17.8
2020-Aug-06 04:17 240 1 gusting 2 17.8
2020-Aug-06 04:07 241 2 gusting 6 17.8
2020-Aug-06 03:42 240 4 gusting 6 17.8
2020-Aug-06 03:37 242 3 gusting 6 17.8
2020-Aug-06 03:32 252 2 gusting 6 17.8
2020-Aug-06 03:17 254 1 gusting 2 17.2
2020-Aug-06 03:07 254 2 gusting 5 17.2
2020-Aug-06 03:02 254 2 gusting 4 17.2
2020-Aug-06 02:42 256 1 gusting 2 17.2
2020-Aug-06 02:37 256 0 gusting 1 17.2
2020-Aug-06 02:32 256 1 gusting 4 17.2
2020-Aug-06 02:17 256 0 gusting 2 17.2
2020-Aug-06 02:12 256 0 gusting 1 17.2
2020-Aug-06 01:42 256 2 gusting 4 17.8
2020-Aug-06 01:37 256 0 gusting 2 17.8
2020-Aug-06 01:32 256 1 gusting 5 17.8
2020-Aug-06 01:17 249 3 gusting 6 17.8
2020-Aug-06 01:12 245 2 gusting 4 18.3
2020-Aug-06 01:02 245 2 gusting 4 18.3
2020-Aug-06 00:47 241 2 gusting 4 18.3
2020-Aug-06 00:37 237 2 gusting 4 18.3
2020-Aug-06 00:32 235 1 gusting 2 18.3
2020-Aug-06 00:17 235 1 gusting 2 17.8
2020-Aug-06 00:07 235 1 gusting 2 17.8
2020-Aug-05 23:47 234 17.8
2020-Aug-05 23:42 234 17.8
2020-Aug-05 23:32 234 17.8
2020-Aug-05 23:17 234 0 gusting 2 17.8
2020-Aug-05 23:12 235 1 gusting 4 17.8
2020-Aug-05 23:07 238 0 gusting 2 17.8
2020-Aug-05 23:02 260 0 gusting 2 17.8
2020-Aug-05 22:47 279 1 gusting 2 18.3
2020-Aug-05 22:37 279 0 gusting 1 18.3
2020-Aug-05 22:32 279 1 gusting 2 18.3
2020-Aug-05 22:17 047 0 gusting 2 18.3
2020-Aug-05 22:12 047 1 gusting 4 18.3
2020-Aug-05 22:02 047 1 gusting 2 18.3
2020-Aug-05 21:47 047 0 gusting 1 18.3
2020-Aug-05 21:42 047 0 gusting 1 18.3
2020-Aug-05 21:17 047 0 gusting 1 18.9
2020-Aug-05 21:12 047 0 gusting 1 18.9
2020-Aug-05 21:07 047 18.9
2020-Aug-05 21:02 047 18.9
2020-Aug-05 20:42 047 0 gusting 1 18.9
2020-Aug-05 20:37 047 18.9
2020-Aug-05 20:32 047 19.4
2020-Aug-05 20:17 047 19.4
2020-Aug-05 20:12 047 19.4
2020-Aug-05 20:07 047 19.4
2020-Aug-05 20:02 047 20.0
2020-Aug-05 19:47 047 20.0
2020-Aug-05 19:32 047 20.6
2020-Aug-05 19:02 047 22.2
2020-Aug-05 18:47 047 22.8
2020-Aug-05 18:42 047 23.3
2020-Aug-05 18:37 047 23.3
2020-Aug-05 18:32 047 23.9
2020-Aug-05 18:17 047 24.4
2020-Aug-05 18:12 047 24.4
2020-Aug-05 18:02 047 25.0